createdAt,value
2022-12-18T00:00:18.891Z,71.01
2022-12-18T00:01:18.917Z,69.50
2022-12-18T00:02:18.881Z,69.14
2022-12-18T00:03:18.938Z,69.76
2022-12-18T00:04:18.893Z,69.42
2022-12-18T00:05:18.849Z,71.70
2022-12-18T00:06:18.853Z,70.06
2022-12-18T00:07:18.850Z,68.97
2022-12-18T00:08:18.831Z,70.30
2022-12-18T00:09:18.837Z,69.84
2022-12-18T00:10:18.809Z,68.57
2022-12-18T00:11:18.819Z,69.25
2022-12-18T00:13:19.813Z,70.05
2022-12-18T00:14:18.788Z,70.81
2022-12-18T00:15:18.804Z,68.91
2022-12-18T00:16:18.812Z,70.17
2022-12-18T00:17:18.780Z,69.13
2022-12-18T00:18:20.730Z,70.55
2022-12-18T00:19:19.889Z,70.89
2022-12-18T00:20:18.748Z,70.24
2022-12-18T00:21:18.735Z,68.88
2022-12-18T00:22:18.745Z,72.68
2022-12-18T00:23:18.744Z,69.00
2022-12-18T00:24:18.731Z,68.93
2022-12-18T00:25:18.718Z,68.90
2022-12-18T00:26:18.708Z,69.92
2022-12-18T00:27:18.708Z,69.13
2022-12-18T00:28:18.722Z,69.58
2022-12-18T00:29:18.708Z,69.58
2022-12-18T00:30:18.704Z,69.09
2022-12-18T00:31:18.763Z,71.40
2022-12-18T00:32:18.676Z,69.71
2022-12-18T00:33:18.676Z,70.54
2022-12-18T00:34:18.706Z,69.12
2022-12-18T00:35:18.659Z,69.50
2022-12-18T00:36:18.655Z,69.56
2022-12-18T00:37:20.360Z,69.84
2022-12-18T00:38:19.644Z,69.00
2022-12-18T00:39:18.648Z,68.33
2022-12-18T00:40:18.640Z,70.46
2022-12-18T00:41:18.617Z,68.63
2022-12-18T00:42:18.620Z,70.41
2022-12-18T00:43:18.608Z,69.33
2022-12-18T00:44:18.605Z,69.95
2022-12-18T00:45:18.604Z,69.53
2022-12-18T00:46:18.681Z,69.01
2022-12-18T00:47:18.574Z,68.90
2022-12-18T00:48:18.570Z,69.56
2022-12-18T00:49:18.584Z,68.58
2022-12-18T00:50:18.558Z,70.68
2022-12-18T00:51:18.553Z,69.01
2022-12-18T00:52:18.554Z,70.27
2022-12-18T00:53:18.538Z,70.28
2022-12-18T00:54:18.553Z,69.15
2022-12-18T00:55:18.533Z,69.63
2022-12-18T00:56:18.524Z,69.86
2022-12-18T00:57:18.511Z,68.78
2022-12-18T00:58:18.517Z,69.22
2022-12-18T00:59:18.534Z,69.28
2022-12-18T01:00:18.497Z,70.42
2022-12-18T01:01:18.599Z,68.62
2022-12-18T01:02:18.649Z,69.34
2022-12-18T01:03:18.584Z,69.54
2022-12-18T01:04:18.482Z,68.85
2022-12-18T01:05:18.466Z,70.16
2022-12-18T01:06:18.458Z,71.21
2022-12-18T01:07:18.461Z,70.06
2022-12-18T01:08:18.444Z,70.28
2022-12-18T01:09:18.434Z,70.41
2022-12-18T01:10:18.436Z,72.11
2022-12-18T01:11:18.437Z,71.01
2022-12-18T01:12:18.408Z,69.80
2022-12-18T01:13:18.417Z,68.79
2022-12-18T01:14:18.396Z,69.70
2022-12-18T01:15:18.408Z,69.75
2022-12-18T01:16:18.457Z,69.05
2022-12-18T01:17:18.382Z,69.41
2022-12-18T01:18:18.371Z,68.77
2022-12-18T01:19:18.382Z,68.84
2022-12-18T01:20:18.366Z,70.12
2022-12-18T01:21:18.369Z,69.09
2022-12-18T01:22:18.353Z,69.78
2022-12-18T01:23:18.344Z,70.50
2022-12-18T01:24:18.335Z,70.28
2022-12-18T01:25:18.356Z,70.18
2022-12-18T01:26:18.312Z,69.32
2022-12-18T01:27:18.322Z,69.03
2022-12-18T01:28:18.327Z,69.74
2022-12-18T01:29:18.300Z,69.88
2022-12-18T01:30:18.315Z,69.74
2022-12-18T01:31:18.337Z,69.07
2022-12-18T01:32:18.292Z,70.16
2022-12-18T01:33:18.268Z,69.02
2022-12-18T01:34:18.273Z,70.30
2022-12-18T01:35:18.260Z,70.87
2022-12-18T01:36:18.254Z,69.44
2022-12-18T01:37:18.254Z,73.36
2022-12-18T01:38:18.261Z,70.53
2022-12-18T01:39:18.233Z,72.24
2022-12-18T01:40:19.230Z,69.85
2022-12-18T01:41:18.212Z,68.96
2022-12-18T01:42:18.210Z,69.05
2022-12-18T01:43:18.229Z,70.61
2022-12-18T01:44:18.205Z,68.98
2022-12-18T01:45:18.193Z,70.61
2022-12-18T01:46:18.241Z,70.73
2022-12-18T01:47:18.189Z,72.27
2022-12-18T01:48:18.197Z,70.48
2022-12-18T01:49:18.176Z,70.79
2022-12-18T01:50:18.161Z,69.72
2022-12-18T01:51:18.156Z,71.11
2022-12-18T01:52:18.157Z,69.00
2022-12-18T01:53:18.141Z,69.64
2022-12-18T01:54:18.159Z,69.80
2022-12-18T01:55:18.159Z,69.27
2022-12-18T01:56:18.118Z,70.88
2022-12-18T01:57:18.114Z,70.93
2022-12-18T01:58:18.124Z,69.56
2022-12-18T01:59:18.116Z,70.01
2022-12-18T02:00:18.087Z,70.15
2022-12-18T02:01:18.216Z,72.08
2022-12-18T02:02:18.198Z,70.47
2022-12-18T02:03:18.120Z,70.29
2022-12-18T02:04:18.075Z,70.24
2022-12-18T02:05:18.077Z,70.02
2022-12-18T02:06:18.051Z,70.20
2022-12-18T02:07:18.063Z,70.03
2022-12-18T02:08:18.038Z,70.32
2022-12-18T02:09:18.033Z,71.14
2022-12-18T02:10:18.044Z,70.80
2022-12-18T02:11:18.019Z,70.22
2022-12-18T02:12:18.002Z,70.60
2022-12-18T02:13:18.102Z,71.82
2022-12-18T02:14:18.004Z,70.95
2022-12-18T02:15:17.996Z,71.47
2022-12-18T02:16:18.050Z,70.52
2022-12-18T02:17:18.012Z,70.03
2022-12-18T02:18:17.975Z,70.20
2022-12-18T02:19:17.971Z,70.08
2022-12-18T02:20:17.979Z,70.12
2022-12-18T02:21:17.954Z,71.31
2022-12-18T02:22:18.510Z,71.14
2022-12-18T02:23:17.936Z,70.00
2022-12-18T02:24:17.958Z,70.32
2022-12-18T02:25:17.959Z,70.23
2022-12-18T02:26:17.979Z,70.99
2022-12-18T02:27:17.919Z,69.90
2022-12-18T02:28:17.934Z,70.27
2022-12-18T02:29:18.002Z,69.52
2022-12-18T02:30:17.933Z,71.63
2022-12-18T02:31:17.968Z,69.97
2022-12-18T02:32:17.899Z,70.98
2022-12-18T02:33:17.891Z,69.57
2022-12-18T02:34:17.888Z,69.96
2022-12-18T02:35:17.891Z,70.20
2022-12-18T02:36:17.887Z,69.73
2022-12-18T02:37:17.876Z,70.34
2022-12-18T02:38:17.859Z,69.84
2022-12-18T02:39:17.854Z,71.50
2022-12-18T02:40:17.863Z,69.79
2022-12-18T02:41:17.867Z,72.09
2022-12-18T02:42:17.840Z,69.53
2022-12-18T02:43:17.849Z,69.46
2022-12-18T02:44:17.828Z,69.75
2022-12-18T02:45:17.912Z,69.48
2022-12-18T02:46:17.902Z,69.43
2022-12-18T02:47:17.807Z,68.95
2022-12-18T02:48:17.817Z,69.52
2022-12-18T02:49:17.794Z,69.59
2022-12-18T02:50:17.791Z,69.50
2022-12-18T02:51:17.808Z,69.31
2022-12-18T02:52:17.796Z,70.09
2022-12-18T02:53:17.780Z,70.96
2022-12-18T02:54:17.784Z,69.38
2022-12-18T02:55:17.773Z,69.54
2022-12-18T02:56:17.766Z,70.42
2022-12-18T02:57:17.794Z,69.48
2022-12-18T02:58:17.739Z,69.92
2022-12-18T02:59:17.745Z,71.19
2022-12-18T03:00:17.729Z,70.91
2022-12-18T03:01:17.934Z,69.39
2022-12-18T03:02:18.060Z,69.12
2022-12-18T03:03:17.804Z,70.08
2022-12-18T03:04:17.717Z,69.65
2022-12-18T03:05:17.723Z,68.99
2022-12-18T03:06:17.708Z,70.11
2022-12-18T03:07:17.720Z,69.89
2022-12-18T03:08:17.713Z,70.15
2022-12-18T03:09:17.691Z,70.16
2022-12-18T03:10:17.687Z,71.04
2022-12-18T03:11:17.692Z,70.22
2022-12-18T03:12:17.694Z,69.27
2022-12-18T03:13:17.661Z,68.84
2022-12-18T03:14:17.672Z,69.68
2022-12-18T03:15:18.140Z,69.24
2022-12-18T03:16:18.679Z,69.67
2022-12-18T03:17:17.745Z,69.95
2022-12-18T03:18:17.644Z,70.20
2022-12-18T03:19:17.939Z,69.47
2022-12-18T03:20:17.637Z,70.49
2022-12-18T03:21:17.615Z,69.78
2022-12-18T03:22:17.616Z,70.26
2022-12-18T03:23:17.627Z,69.68
2022-12-18T03:24:17.615Z,69.56
2022-12-18T03:25:17.613Z,71.03
2022-12-18T03:26:17.611Z,68.89
2022-12-18T03:27:17.590Z,70.82
2022-12-18T03:28:17.590Z,70.00
2022-12-18T03:29:17.591Z,69.63
2022-12-18T03:30:17.584Z,70.27
2022-12-18T03:31:17.638Z,71.09
2022-12-18T03:32:17.573Z,69.96
2022-12-18T03:33:17.673Z,70.64
2022-12-18T03:34:17.548Z,68.85
2022-12-18T03:35:17.566Z,69.13
2022-12-18T03:36:17.582Z,70.17
2022-12-18T03:37:17.541Z,70.37
2022-12-18T03:38:18.375Z,70.21
2022-12-18T03:39:17.529Z,70.83
2022-12-18T03:40:17.540Z,71.64
2022-12-18T03:41:17.534Z,71.68
2022-12-18T03:42:17.519Z,71.30
2022-12-18T03:43:17.522Z,71.11
2022-12-18T03:44:17.523Z,70.24
2022-12-18T03:45:17.503Z,70.52
2022-12-18T03:46:17.604Z,69.04
2022-12-18T03:47:17.505Z,70.72
2022-12-18T03:48:17.512Z,73.00
2022-12-18T03:49:22.963Z,71.19
2022-12-18T03:50:24.444Z,68.52
2022-12-18T03:51:18.562Z,71.10
2022-12-18T03:52:17.475Z,72.71
2022-12-18T03:53:17.495Z,70.73
2022-12-18T03:54:17.476Z,71.58
2022-12-18T03:55:17.462Z,72.73
2022-12-18T03:56:17.473Z,71.52
2022-12-18T03:57:17.459Z,71.16
2022-12-18T03:58:17.477Z,71.50
2022-12-18T03:59:17.463Z,72.33
2022-12-18T04:00:17.440Z,73.90
2022-12-18T04:01:17.569Z,71.99
2022-12-18T04:02:17.635Z,72.24
2022-12-18T04:03:17.501Z,71.42
2022-12-18T04:04:17.474Z,73.02
2022-12-18T04:05:17.438Z,72.60
2022-12-18T04:06:17.466Z,72.87
2022-12-18T04:07:17.503Z,72.72
2022-12-18T04:08:43.846Z,72.03
2022-12-18T04:09:17.404Z,70.80
2022-12-18T04:10:17.398Z,71.30
2022-12-18T04:11:17.398Z,71.79
2022-12-18T04:12:17.398Z,73.18
2022-12-18T04:13:17.394Z,72.44
2022-12-18T04:14:18.179Z,71.69
2022-12-18T04:15:18.391Z,73.47
2022-12-18T04:16:17.422Z,72.46
2022-12-18T04:17:17.379Z,72.97
2022-12-18T04:18:17.363Z,72.14
2022-12-18T04:19:17.378Z,72.29
2022-12-18T04:20:17.372Z,72.70
2022-12-18T04:21:17.350Z,71.95
2022-12-18T04:22:17.354Z,73.22
2022-12-18T04:23:17.437Z,73.86
2022-12-18T04:24:17.345Z,72.10
2022-12-18T04:25:17.325Z,73.36
2022-12-18T04:26:17.334Z,71.33
2022-12-18T04:27:17.339Z,72.56
2022-12-18T04:28:17.330Z,72.56
2022-12-18T04:29:17.318Z,72.05
2022-12-18T04:30:17.320Z,73.35
2022-12-18T04:31:17.348Z,72.86
2022-12-18T04:32:17.310Z,72.42
2022-12-18T04:33:17.320Z,73.26
2022-12-18T04:34:17.294Z,72.32
2022-12-18T04:35:17.303Z,72.40
2022-12-18T04:36:17.324Z,71.48
2022-12-18T04:37:17.300Z,72.99
2022-12-18T04:38:17.280Z,72.33
2022-12-18T04:39:17.381Z,72.47
2022-12-18T04:40:17.275Z,72.43
2022-12-18T04:41:17.259Z,73.28
2022-12-18T04:42:17.260Z,72.68
2022-12-18T04:43:17.373Z,72.31
2022-12-18T04:44:17.251Z,71.38
2022-12-18T04:45:17.268Z,71.78
2022-12-18T04:46:17.332Z,71.44
2022-12-18T04:47:17.244Z,73.32
2022-12-18T04:48:17.248Z,71.78
2022-12-18T04:49:17.227Z,72.14
2022-12-18T04:50:17.252Z,73.18
2022-12-18T04:51:18.989Z,71.66
2022-12-18T04:52:18.228Z,71.60
2022-12-18T04:53:17.222Z,72.65
2022-12-18T04:54:17.215Z,71.75
2022-12-18T04:55:17.304Z,72.89
2022-12-18T04:56:17.230Z,72.38
2022-12-18T04:57:17.226Z,72.18
2022-12-18T04:58:17.212Z,72.21
2022-12-18T04:59:17.190Z,72.21
2022-12-18T05:00:17.202Z,72.63
2022-12-18T05:01:17.308Z,72.19
2022-12-18T05:02:17.280Z,72.21
2022-12-18T05:03:17.242Z,72.46
2022-12-18T05:04:17.226Z,72.26
2022-12-18T05:05:17.177Z,73.34
2022-12-18T05:06:17.169Z,72.15
2022-12-18T05:07:17.178Z,73.20
2022-12-18T05:08:17.166Z,74.23
2022-12-18T05:09:17.165Z,72.77
2022-12-18T05:10:17.154Z,73.60
2022-12-18T05:11:17.236Z,72.47
2022-12-18T05:12:17.169Z,74.00
2022-12-18T05:13:18.010Z,72.85
2022-12-18T05:14:17.137Z,73.42
2022-12-18T05:15:17.150Z,72.36
2022-12-18T05:16:17.337Z,72.62
2022-12-18T05:17:17.153Z,72.05
2022-12-18T05:18:17.121Z,72.53
2022-12-18T05:19:17.116Z,72.34
2022-12-18T05:20:17.132Z,72.53
2022-12-18T05:21:17.117Z,73.66
2022-12-18T05:22:17.115Z,73.24
2022-12-18T05:23:17.116Z,73.37
2022-12-18T05:24:17.105Z,73.17
2022-12-18T05:25:17.095Z,74.02
2022-12-18T05:26:17.087Z,73.26
2022-12-18T05:27:17.178Z,73.17
2022-12-18T05:28:17.107Z,73.55
2022-12-18T05:29:17.131Z,74.57
2022-12-18T05:30:17.062Z,72.78
2022-12-18T05:31:17.142Z,73.07
2022-12-18T05:32:17.068Z,74.07
2022-12-18T05:33:17.087Z,73.31
2022-12-18T05:34:17.055Z,73.63
2022-12-18T05:35:17.068Z,73.58
2022-12-18T05:36:17.070Z,73.26
2022-12-18T05:37:17.028Z,74.01
2022-12-18T05:38:17.124Z,74.17
2022-12-18T05:39:17.128Z,74.57
2022-12-18T05:40:17.030Z,72.90
2022-12-18T05:41:17.027Z,73.45
2022-12-18T05:42:17.019Z,72.81
2022-12-18T05:43:21.177Z,74.50
2022-12-18T05:44:18.023Z,74.25
2022-12-18T05:45:17.023Z,73.23
2022-12-18T05:46:17.089Z,73.59
2022-12-18T05:47:17.003Z,74.50
2022-12-18T05:48:17.004Z,73.82
2022-12-18T05:49:17.108Z,74.90
2022-12-18T05:50:17.004Z,73.50
2022-12-18T05:51:16.988Z,73.63
2022-12-18T05:52:16.979Z,72.58
2022-12-18T05:53:16.971Z,73.20
2022-12-18T05:54:17.015Z,72.55
2022-12-18T05:55:16.983Z,73.08
2022-12-18T05:56:16.981Z,73.07
2022-12-18T05:57:16.966Z,73.84
2022-12-18T05:58:16.947Z,73.38
2022-12-18T05:59:17.062Z,73.42
2022-12-18T06:00:16.969Z,73.36
2022-12-18T06:01:16.998Z,73.60
2022-12-18T06:02:17.017Z,73.30
2022-12-18T06:03:17.061Z,73.45
2022-12-18T06:04:17.065Z,73.29
2022-12-18T06:05:16.931Z,73.21
2022-12-18T06:06:16.918Z,74.16
2022-12-18T06:07:16.923Z,72.82
2022-12-18T06:08:16.903Z,71.85
2022-12-18T06:09:16.935Z,73.31
2022-12-18T06:10:16.898Z,73.49
2022-12-18T06:11:16.901Z,73.82
2022-12-18T06:12:16.906Z,73.56
2022-12-18T06:13:16.903Z,73.76
2022-12-18T06:14:16.877Z,73.38
2022-12-18T06:15:17.976Z,72.02
2022-12-18T06:16:16.998Z,73.16
2022-12-18T06:17:16.880Z,73.46
2022-12-18T06:18:16.861Z,73.25
2022-12-18T06:19:16.868Z,73.83
2022-12-18T06:20:16.900Z,74.16
2022-12-18T06:21:16.840Z,73.40
2022-12-18T06:22:16.852Z,73.83
2022-12-18T06:23:16.856Z,74.14
2022-12-18T06:24:16.841Z,75.02
2022-12-18T06:25:16.855Z,74.10
2022-12-18T06:26:17.848Z,74.17
2022-12-18T06:27:16.826Z,74.53
2022-12-18T06:28:16.828Z,75.07
2022-12-18T06:29:16.844Z,73.96
2022-12-18T06:30:16.817Z,73.65
2022-12-18T06:31:17.006Z,74.14
2022-12-18T06:32:16.811Z,73.57
2022-12-18T06:33:16.799Z,74.33
2022-12-18T06:34:16.803Z,73.81
2022-12-18T06:35:16.811Z,74.36
2022-12-18T06:36:16.799Z,73.35
2022-12-18T06:37:17.350Z,73.59
2022-12-18T06:38:16.789Z,74.69
2022-12-18T06:39:16.783Z,73.49
2022-12-18T06:40:16.783Z,73.83
2022-12-18T06:41:16.799Z,72.95
2022-12-18T06:42:16.758Z,73.20
2022-12-18T06:43:17.792Z,73.18
2022-12-18T06:44:16.760Z,73.92
2022-12-18T06:45:16.769Z,72.45
2022-12-18T06:46:16.827Z,73.06
2022-12-18T06:47:16.873Z,73.74
2022-12-18T06:48:16.763Z,73.76
2022-12-18T06:49:16.753Z,72.62
2022-12-18T06:50:16.748Z,71.60
2022-12-18T06:51:16.724Z,72.10
2022-12-18T06:52:16.727Z,72.77
2022-12-18T06:53:16.745Z,72.42
2022-12-18T06:54:16.727Z,71.95
2022-12-18T06:55:16.723Z,71.32
2022-12-18T06:56:16.708Z,71.71
2022-12-18T06:57:16.700Z,72.64
2022-12-18T06:58:16.699Z,71.94
2022-12-18T06:59:16.707Z,71.90
2022-12-18T07:00:16.699Z,71.77
2022-12-18T07:01:16.830Z,71.51
2022-12-18T07:02:16.776Z,73.31
2022-12-18T07:03:16.777Z,72.46
2022-12-18T07:04:16.681Z,72.60
2022-12-18T07:05:16.678Z,72.73
2022-12-18T07:06:16.671Z,71.02
2022-12-18T07:07:16.656Z,70.19
2022-12-18T07:08:16.697Z,72.11
2022-12-18T07:09:16.652Z,71.38
2022-12-18T07:10:16.645Z,70.49
2022-12-18T07:11:16.671Z,71.56
2022-12-18T07:12:16.656Z,71.47
2022-12-18T07:13:16.646Z,71.15
2022-12-18T07:14:16.628Z,71.41
2022-12-18T07:15:16.631Z,70.81
2022-12-18T07:16:23.951Z,73.13
2022-12-18T07:17:18.615Z,72.27
2022-12-18T07:18:16.631Z,70.59
2022-12-18T07:19:16.702Z,71.55
2022-12-18T07:20:16.706Z,72.45
2022-12-18T07:21:16.613Z,70.62
2022-12-18T07:22:16.620Z,70.01
2022-12-18T07:23:17.477Z,71.16
2022-12-18T07:24:16.589Z,70.41
2022-12-18T07:25:16.612Z,70.87
2022-12-18T07:26:16.612Z,69.85
2022-12-18T07:27:16.600Z,70.99
2022-12-18T07:28:17.630Z,72.58
2022-12-18T07:29:17.556Z,71.21
2022-12-18T07:30:16.552Z,71.37
2022-12-18T07:31:16.655Z,71.60
2022-12-18T07:32:16.565Z,70.81
2022-12-18T07:33:16.549Z,70.86
2022-12-18T07:34:16.536Z,71.43
2022-12-18T07:35:19.378Z,71.44
2022-12-18T07:36:18.919Z,70.67
2022-12-18T07:37:16.533Z,71.45
2022-12-18T07:38:16.552Z,71.92
2022-12-18T07:39:16.516Z,72.65
2022-12-18T07:40:16.510Z,71.46
2022-12-18T07:41:16.515Z,73.18
2022-12-18T07:42:16.524Z,75.56
2022-12-18T07:43:16.505Z,73.36
2022-12-18T07:44:16.503Z,75.36
2022-12-18T07:45:16.487Z,73.19
2022-12-18T07:46:16.529Z,73.59
2022-12-18T07:47:16.487Z,74.47
2022-12-18T07:48:16.505Z,73.99
2022-12-18T07:49:16.470Z,73.78
2022-12-18T07:50:16.488Z,74.61
2022-12-18T07:51:16.561Z,74.02
2022-12-18T07:52:19.308Z,75.74
2022-12-18T07:53:17.446Z,73.52
2022-12-18T07:54:16.443Z,74.30
2022-12-18T07:55:16.457Z,73.57
2022-12-18T07:56:31.883Z,75.97
2022-12-18T07:57:48.442Z,75.00
2022-12-18T07:58:18.441Z,74.29
2022-12-18T07:59:16.480Z,73.63
2022-12-18T08:00:16.435Z,75.22
2022-12-18T08:01:16.504Z,74.57
2022-12-18T08:02:16.553Z,74.78
2022-12-18T08:03:16.480Z,75.12
2022-12-18T08:04:16.416Z,75.60
2022-12-18T08:05:16.405Z,74.77
2022-12-18T08:06:16.410Z,75.49
2022-12-18T08:07:16.484Z,74.67
2022-12-18T08:08:16.397Z,74.88
2022-12-18T08:09:16.395Z,74.74
2022-12-18T08:10:16.407Z,74.05
2022-12-18T08:11:16.386Z,75.48
2022-12-18T08:12:16.419Z,74.93
2022-12-18T08:13:16.423Z,76.58
2022-12-18T08:14:16.363Z,75.66
2022-12-18T08:15:16.361Z,74.56
2022-12-18T08:16:16.412Z,75.55
2022-12-18T08:17:16.386Z,75.06
2022-12-18T08:18:16.354Z,74.57
2022-12-18T08:19:16.341Z,75.48
2022-12-18T08:20:16.345Z,75.56
2022-12-18T08:21:16.370Z,75.29
2022-12-18T08:22:16.329Z,73.84
2022-12-18T08:23:16.450Z,75.08
2022-12-18T08:24:16.333Z,76.12
2022-12-18T08:25:16.324Z,75.68
2022-12-18T08:26:16.316Z,74.87
2022-12-18T08:27:31.742Z,74.89
2022-12-18T08:28:18.326Z,74.70
2022-12-18T08:29:21.436Z,74.60
2022-12-18T08:30:17.291Z,73.92
2022-12-18T08:31:16.340Z,73.94
2022-12-18T08:32:16.322Z,74.27
2022-12-18T08:33:16.286Z,76.03
2022-12-18T08:34:16.330Z,74.56
2022-12-18T08:35:18.700Z,74.73
2022-12-18T08:36:17.279Z,76.57
2022-12-18T08:37:16.272Z,75.10
2022-12-18T08:38:16.299Z,74.86
2022-12-18T08:39:16.367Z,74.61
2022-12-18T08:40:16.279Z,74.21
2022-12-18T08:41:16.268Z,75.54
2022-12-18T08:42:16.263Z,75.12
2022-12-18T08:43:16.243Z,75.59
2022-12-18T08:44:16.276Z,74.94
2022-12-18T08:45:16.256Z,76.26
2022-12-18T08:46:16.318Z,75.68
2022-12-18T08:47:16.250Z,74.53
2022-12-18T08:48:20.681Z,73.71
2022-12-18T08:49:18.231Z,75.29
2022-12-18T08:50:16.216Z,74.33
2022-12-18T08:51:16.213Z,75.02
2022-12-18T08:52:16.227Z,74.46
2022-12-18T08:53:16.208Z,74.84
2022-12-18T08:54:16.212Z,74.62
2022-12-18T08:55:16.286Z,75.18
2022-12-18T08:56:16.211Z,73.45
2022-12-18T08:57:16.183Z,73.56
2022-12-18T08:58:16.192Z,73.87
2022-12-18T08:59:19.739Z,74.23
2022-12-18T09:00:17.198Z,73.14
2022-12-18T09:01:16.324Z,74.03
2022-12-18T09:02:16.375Z,72.17
2022-12-18T09:03:16.247Z,73.80
2022-12-18T09:04:16.159Z,71.68
2022-12-18T09:05:16.162Z,71.37
2022-12-18T09:06:16.174Z,73.61
2022-12-18T09:07:16.191Z,71.31
2022-12-18T09:08:16.168Z,70.07
2022-12-18T09:09:16.159Z,75.07
2022-12-18T09:10:16.135Z,72.75
2022-12-18T09:11:16.242Z,70.64
2022-12-18T09:12:16.137Z,72.02
2022-12-18T09:13:16.158Z,72.55
2022-12-18T09:14:16.173Z,71.41
2022-12-18T09:15:16.115Z,74.40
2022-12-18T09:16:16.111Z,74.05
2022-12-18T09:17:16.162Z,74.39
2022-12-18T09:18:16.095Z,72.93
2022-12-18T09:19:16.098Z,74.03
2022-12-18T09:20:16.098Z,73.05
2022-12-18T09:21:16.100Z,70.33
2022-12-18T09:22:16.082Z,70.68
2022-12-18T09:23:16.080Z,73.09
2022-12-18T09:24:16.113Z,73.20
2022-12-18T09:25:16.063Z,73.53
2022-12-18T09:26:16.074Z,71.11
2022-12-18T09:27:16.157Z,71.12
2022-12-18T09:28:16.065Z,71.49
2022-12-18T09:29:16.378Z,71.53
2022-12-18T09:30:16.033Z,70.81
2022-12-18T09:31:16.145Z,70.39
2022-12-18T09:32:21.980Z,72.55
2022-12-18T09:33:18.029Z,71.60
2022-12-18T09:34:16.017Z,71.46
2022-12-18T09:35:16.021Z,72.73
2022-12-18T09:36:16.031Z,72.46
2022-12-18T09:37:16.012Z,73.41
2022-12-18T09:38:16.002Z,72.25
2022-12-18T09:39:15.966Z,72.89
2022-12-18T09:40:15.967Z,72.25
2022-12-18T09:41:15.970Z,74.63
2022-12-18T09:42:15.960Z,73.99
2022-12-18T09:43:16.056Z,74.47
2022-12-18T09:44:15.969Z,73.09
2022-12-18T09:45:16.033Z,72.46
2022-12-18T09:46:15.993Z,71.43
2022-12-18T09:47:15.926Z,72.04
2022-12-18T09:48:15.949Z,72.10
2022-12-18T09:49:15.914Z,69.52
2022-12-18T09:50:17.537Z,71.05
2022-12-18T09:51:16.922Z,72.15
2022-12-18T09:52:15.907Z,73.15
2022-12-18T09:53:15.914Z,71.56
2022-12-18T09:54:15.882Z,73.71
2022-12-18T09:55:15.866Z,72.07
2022-12-18T09:56:15.859Z,70.21
2022-12-18T09:57:15.864Z,75.02
2022-12-18T09:58:15.867Z,74.73
2022-12-18T09:59:15.973Z,72.95
2022-12-18T10:00:15.843Z,71.29
2022-12-18T10:01:15.909Z,73.08
2022-12-18T10:02:15.926Z,70.69
2022-12-18T10:03:15.905Z,73.72
2022-12-18T10:04:15.861Z,72.25
2022-12-18T10:05:15.816Z,72.41
2022-12-18T10:06:15.813Z,73.07
2022-12-18T10:07:15.795Z,71.75
2022-12-18T10:08:15.788Z,74.51
2022-12-18T10:09:41.775Z,72.01
2022-12-18T10:10:15.799Z,72.77
2022-12-18T10:11:15.776Z,72.36
2022-12-18T10:12:15.784Z,72.11
2022-12-18T10:13:15.767Z,70.98
2022-12-18T10:14:15.788Z,72.52
2022-12-18T10:15:15.876Z,72.60
2022-12-18T10:16:15.801Z,72.91
2022-12-18T10:17:15.753Z,71.97
2022-12-18T10:18:20.278Z,71.73
2022-12-18T10:19:17.771Z,72.09
2022-12-18T10:20:15.738Z,72.12
2022-12-18T10:21:15.731Z,73.05
2022-12-18T10:22:15.723Z,75.35
2022-12-18T10:23:15.743Z,72.25
2022-12-18T10:24:15.723Z,73.62
2022-12-18T10:25:15.708Z,71.45
2022-12-18T10:26:15.741Z,73.74
2022-12-18T10:27:16.699Z,74.23
2022-12-18T10:28:15.676Z,72.47
2022-12-18T10:29:15.674Z,72.76
2022-12-18T10:30:15.698Z,72.47
2022-12-18T10:31:15.878Z,74.07
2022-12-18T10:32:15.702Z,74.27
2022-12-18T10:33:15.662Z,73.35
2022-12-18T10:34:15.710Z,73.51
2022-12-18T10:35:15.694Z,70.96
2022-12-18T10:36:15.701Z,73.26
2022-12-18T10:37:15.640Z,73.41
2022-12-18T10:38:15.632Z,71.84
2022-12-18T10:39:15.625Z,73.47
2022-12-18T10:40:21.935Z,72.72
2022-12-18T10:41:17.660Z,72.88
2022-12-18T10:42:15.635Z,74.81
2022-12-18T10:43:15.610Z,74.51
2022-12-18T10:44:15.590Z,74.27
2022-12-18T10:45:16.644Z,73.97
2022-12-18T10:46:15.665Z,75.30
2022-12-18T10:47:15.671Z,72.31
2022-12-18T10:48:15.565Z,73.61
2022-12-18T10:49:15.553Z,73.39
2022-12-18T10:50:15.538Z,73.12
2022-12-18T10:51:15.563Z,73.23
2022-12-18T10:52:15.586Z,71.78
2022-12-18T10:53:15.551Z,72.31
2022-12-18T10:54:15.569Z,76.75
2022-12-18T10:55:15.571Z,74.46
2022-12-18T10:56:15.510Z,72.92
2022-12-18T10:57:15.517Z,71.27
2022-12-18T10:58:15.537Z,72.41
2022-12-18T10:59:15.504Z,72.77
2022-12-18T11:00:15.489Z,71.76
2022-12-18T11:01:15.734Z,71.97
2022-12-18T11:02:16.589Z,72.95
2022-12-18T11:03:15.704Z,71.55
2022-12-18T11:04:15.475Z,72.13
2022-12-18T11:05:15.484Z,72.30
2022-12-18T11:06:15.479Z,72.45
2022-12-18T11:07:15.456Z,71.81
2022-12-18T11:08:15.477Z,73.19
2022-12-18T11:09:15.675Z,74.50
2022-12-18T11:10:16.555Z,72.38
2022-12-18T11:11:15.428Z,73.51
2022-12-18T11:12:15.484Z,71.67
2022-12-18T11:13:15.491Z,73.71
2022-12-18T11:14:15.422Z,74.21
2022-12-18T11:15:15.448Z,72.55
2022-12-18T11:16:15.451Z,73.80
2022-12-18T11:17:30.745Z,74.21
2022-12-18T11:18:17.498Z,67.82
2022-12-18T11:19:15.412Z,70.52
2022-12-18T11:20:15.402Z,71.43
2022-12-18T11:21:15.393Z,73.06
2022-12-18T11:22:15.398Z,72.30
2022-12-18T11:23:15.414Z,71.58
2022-12-18T11:24:15.426Z,70.67
2022-12-18T11:25:32.517Z,72.54
2022-12-18T11:26:17.346Z,72.84
2022-12-18T11:27:15.404Z,69.27
2022-12-18T11:28:15.330Z,72.27
2022-12-18T11:29:15.361Z,72.11
2022-12-18T11:30:15.372Z,69.95
2022-12-18T11:31:15.437Z,72.42
2022-12-18T11:32:15.314Z,70.29
2022-12-18T11:33:15.287Z,72.81
2022-12-18T11:34:30.911Z,71.59
2022-12-18T11:35:17.286Z,70.82
2022-12-18T11:36:15.304Z,72.58
2022-12-18T11:37:15.286Z,68.36
2022-12-18T11:38:15.264Z,70.78
2022-12-18T11:39:15.328Z,72.74
2022-12-18T11:40:15.291Z,73.42
2022-12-18T11:41:15.285Z,68.19
2022-12-18T11:42:15.258Z,73.48
2022-12-18T11:43:15.265Z,74.46
2022-12-18T11:44:15.245Z,71.71
2022-12-18T11:45:15.245Z,74.86
2022-12-18T11:46:19.508Z,72.30
2022-12-18T11:47:16.237Z,74.41
2022-12-18T11:48:15.223Z,72.45
2022-12-18T11:49:15.208Z,72.83
2022-12-18T11:50:15.410Z,75.40
2022-12-18T11:51:15.236Z,74.78
2022-12-18T11:52:15.219Z,73.82
2022-12-18T11:53:15.185Z,72.39
2022-12-18T11:54:15.184Z,71.85
2022-12-18T11:55:15.174Z,70.32
2022-12-18T11:56:15.171Z,70.58
2022-12-18T11:57:15.179Z,71.42
2022-12-18T11:58:15.162Z,71.98
2022-12-18T11:59:15.152Z,73.87
2022-12-18T12:00:15.215Z,72.66
2022-12-18T12:01:15.223Z,73.78
2022-12-18T12:02:15.381Z,71.15
2022-12-18T12:03:15.223Z,72.59
2022-12-18T12:04:15.149Z,71.98
2022-12-18T12:05:15.123Z,70.00
2022-12-18T12:06:15.223Z,74.61
2022-12-18T12:07:15.932Z,72.86
2022-12-18T12:08:15.108Z,74.78
2022-12-18T12:09:15.090Z,71.98
2022-12-18T12:10:15.150Z,72.99
2022-12-18T12:11:15.068Z,69.18
2022-12-18T12:12:15.080Z,75.37
2022-12-18T12:13:15.086Z,70.78
2022-12-18T12:14:15.068Z,73.52
2022-12-18T12:15:15.053Z,72.44
2022-12-18T12:16:15.095Z,71.10
2022-12-18T12:17:15.054Z,70.85
2022-12-18T12:18:15.064Z,72.07
2022-12-18T12:19:15.057Z,70.97
2022-12-18T12:20:15.055Z,72.87
2022-12-18T12:21:15.059Z,71.94
2022-12-18T12:22:15.114Z,73.66
2022-12-18T12:23:15.039Z,72.82
2022-12-18T12:24:15.006Z,70.36
2022-12-18T12:25:15.113Z,71.83
2022-12-18T12:26:14.992Z,72.60
2022-12-18T12:27:15.041Z,71.78
2022-12-18T12:28:15.019Z,71.21
2022-12-18T12:29:20.857Z,72.84
2022-12-18T12:30:16.977Z,68.69
2022-12-18T12:31:14.993Z,71.67
2022-12-18T12:32:14.983Z,71.92
2022-12-18T12:33:14.971Z,72.95
2022-12-18T12:34:14.976Z,69.88
2022-12-18T12:35:14.933Z,67.82
2022-12-18T12:36:14.925Z,73.25
2022-12-18T12:37:14.925Z,74.93
2022-12-18T12:38:15.006Z,72.26
2022-12-18T12:39:14.931Z,72.64
2022-12-18T12:40:48.347Z,70.64
2022-12-18T12:41:16.915Z,73.36
2022-12-18T12:42:14.915Z,68.89
2022-12-18T12:43:14.898Z,71.36
2022-12-18T12:44:14.934Z,70.93
2022-12-18T12:45:15.454Z,71.95
2022-12-18T12:46:14.905Z,72.28
2022-12-18T12:47:14.865Z,71.92
2022-12-18T12:48:14.874Z,71.93
2022-12-18T12:49:14.859Z,70.83
2022-12-18T12:50:14.875Z,69.40
2022-12-18T12:51:14.881Z,72.80
2022-12-18T12:52:14.867Z,68.69
2022-12-18T12:53:14.839Z,70.15